sensor_id;sensor_type;location;lat;lon;timestamp;temperature;humidity
23207;DHT22;11773;52.570;13.052;2024-01-16T00:01:43;3.20;99.90
23207;DHT22;11773;52.570;13.052;2024-01-16T00:04:13;3.30;99.90
23207;DHT22;11773;52.570;13.052;2024-01-16T00:06:43;3.00;99.90
23207;DHT22;11773;52.570;13.052;2024-01-16T00:09:14;3.10;99.90
23207;DHT22;11773;52.570;13.052;2024-01-16T00:11:44;3.20;99.90
23207;DHT22;11773;52.570;13.052;2024-01-16T00:14:13;3.10;99.90
23207;DHT22;11773;52.570;13.052;2024-01-16T00:16:44;2.90;99.90
23207;DHT22;11773;52.570;13.052;2024-01-16T00:19:15;2.90;99.90
23207;DHT22;11773;52.570;13.052;2024-01-16T00:21:45;3.00;99.90
23207;DHT22;11773;52.570;13.052;2024-01-16T00:24:15;2.80;99.90
23207;DHT22;11773;52.570;13.052;2024-01-16T00:26:45;2.80;99.90
23207;DHT22;11773;52.570;13.052;2024-01-16T00:29:14;2.90;99.90
23207;DHT22;11773;52.570;13.052;2024-01-16T00:31:44;2.80;99.90
23207;DHT22;11773;52.570;13.052;2024-01-16T00:34:14;2.90;99.90
23207;DHT22;11773;52.570;13.052;2024-01-16T00:36:44;2.60;99.90
23207;DHT22;11773;52.570;13.052;2024-01-16T00:39:13;2.30;99.90
23207;DHT22;11773;52.570;13.052;2024-01-16T00:41:43;2.30;99.90
23207;DHT22;11773;52.570;13.052;2024-01-16T00:44:13;2.20;99.90
23207;DHT22;11773;52.570;13.052;2024-01-16T00:46:42;2.20;99.90
23207;DHT22;11773;52.570;13.052;2024-01-16T00:49:12;2.20;99.90
23207;DHT22;11773;52.570;13.052;2024-01-16T00:51:43;2.10;99.90
23207;DHT22;11773;52.570;13.052;2024-01-16T00:54:13;2.10;99.90
23207;DHT22;11773;52.570;13.052;2024-01-16T00:56:42;1.80;99.90
23207;DHT22;11773;52.570;13.052;2024-01-16T00:59:12;1.70;99.90
23207;DHT22;11773;52.570;13.052;2024-01-16T01:01:42;1.40;99.90
23207;DHT22;11773;52.570;13.052;2024-01-16T01:04:11;1.60;99.90
23207;DHT22;11773;52.570;13.052;2024-01-16T01:06:41;1.70;99.90
23207;DHT22;11773;52.570;13.052;2024-01-16T01:09:10;1.60;99.90
23207;DHT22;11773;52.570;13.052;2024-01-16T01:11:40;1.60;99.90
23207;DHT22;11773;52.570;13.052;2024-01-16T01:14:10;1.80;99.90
23207;DHT22;11773;52.570;13.052;2024-01-16T01:16:39;1.60;99.90
23207;DHT22;11773;52.570;13.052;2024-01-16T01:19:09;1.70;99.90
23207;DHT22;11773;52.570;13.052;2024-01-16T01:21:40;1.90;99.90
23207;DHT22;11773;52.570;13.052;2024-01-16T01:24:09;2.00;99.90
23207;DHT22;11773;52.570;13.052;2024-01-16T01:26:39;1.90;99.90
23207;DHT22;11773;52.570;13.052;2024-01-16T01:29:14;1.90;99.90
23207;DHT22;11773;52.570;13.052;2024-01-16T01:31:46;1.90;99.90
23207;DHT22;11773;52.570;13.052;2024-01-16T01:34:16;1.90;99.90
23207;DHT22;11773;52.570;13.052;2024-01-16T01:36:46;1.90;99.90
23207;DHT22;11773;52.570;13.052;2024-01-16T01:39:15;2.00;99.90
23207;DHT22;11773;52.570;13.052;2024-01-16T01:41:45;2.00;99.90
23207;DHT22;11773;52.570;13.052;2024-01-16T01:44:14;1.90;99.90
23207;DHT22;11773;52.570;13.052;2024-01-16T01:46:44;1.90;99.90
23207;DHT22;11773;52.570;13.052;2024-01-16T01:49:14;1.90;99.90
23207;DHT22;11773;52.570;13.052;2024-01-16T01:51:45;1.90;99.90
23207;DHT22;11773;52.570;13.052;2024-01-16T01:54:15;2.00;99.90
23207;DHT22;11773;52.570;13.052;2024-01-16T01:56:47;1.90;99.90
23207;DHT22;11773;52.570;13.052;2024-01-16T01:59:18;1.90;99.90
23207;DHT22;11773;52.570;13.052;2024-01-16T02:01:52;2.00;99.90
23207;DHT22;11773;52.570;13.052;2024-01-16T02:04:23;1.90;99.90
23207;DHT22;11773;52.570;13.052;2024-01-16T02:06:55;1.90;99.90
23207;DHT22;11773;52.570;13.052;2024-01-16T02:09:24;1.80;99.90
23207;DHT22;11773;52.570;13.052;2024-01-16T02:11:55;1.90;99.90
23207;DHT22;11773;52.570;13.052;2024-01-16T02:14:24;2.00;99.90
23207;DHT22;11773;52.570;13.052;2024-01-16T02:16:54;1.90;99.90
23207;DHT22;11773;52.570;13.052;2024-01-16T02:19:23;1.90;99.90
23207;DHT22;11773;52.570;13.052;2024-01-16T02:21:58;2.00;99.90
23207;DHT22;11773;52.570;13.052;2024-01-16T02:24:30;2.00;99.90
23207;DHT22;11773;52.570;13.052;2024-01-16T02:27:00;1.90;99.90
23207;DHT22;11773;52.570;13.052;2024-01-16T02:29:30;1.90;99.90
23207;DHT22;11773;52.570;13.052;2024-01-16T02:31:59;1.80;99.90
23207;DHT22;11773;52.570;13.052;2024-01-16T02:34:31;1.80;99.90
23207;DHT22;11773;52.570;13.052;2024-01-16T02:37:00;1.70;99.90
23207;DHT22;11773;52.570;13.052;2024-01-16T02:39:30;1.70;99.90
23207;DHT22;11773;52.570;13.052;2024-01-16T02:41:59;1.50;99.90
23207;DHT22;11773;52.570;13.052;2024-01-16T02:44:29;1.40;99.90
23207;DHT22;11773;52.570;13.052;2024-01-16T02:46:59;1.40;99.90
23207;DHT22;11773;52.570;13.052;2024-01-16T02:49:28;1.50;99.90
23207;DHT22;11773;52.570;13.052;2024-01-16T02:52:00;1.50;99.90
23207;DHT22;11773;52.570;13.052;2024-01-16T02:54:29;1.60;99.90
23207;DHT22;11773;52.570;13.052;2024-01-16T02:56:59;1.60;99.90
23207;DHT22;11773;52.570;13.052;2024-01-16T02:59:28;1.50;99.90
23207;DHT22;11773;52.570;13.052;2024-01-16T03:01:59;1.50;99.90
23207;DHT22;11773;52.570;13.052;2024-01-16T03:04:29;1.50;99.90
23207;DHT22;11773;52.570;13.052;2024-01-16T03:06:59;1.50;99.90
23207;DHT22;11773;52.570;13.052;2024-01-16T03:09:29;1.50;99.90
23207;DHT22;11773;52.570;13.052;2024-01-16T03:11:59;1.50;99.90
23207;DHT22;11773;52.570;13.052;2024-01-16T03:14:28;1.50;99.90
23207;DHT22;11773;52.570;13.052;2024-01-16T03:17:03;1.60;99.90
23207;DHT22;11773;52.570;13.052;2024-01-16T03:19:34;1.60;99.90
23207;DHT22;11773;52.570;13.052;2024-01-16T03:22:04;1.60;99.90
23207;DHT22;11773;52.570;13.052;2024-01-16T03:24:33;1.60;99.90
23207;DHT22;11773;52.570;13.052;2024-01-16T03:27:03;1.60;99.90
23207;DHT22;11773;52.570;13.052;2024-01-16T03:29:33;1.50;99.90
23207;DHT22;11773;52.570;13.052;2024-01-16T03:32:03;1.50;99.90
23207;DHT22;11773;52.570;13.052;2024-01-16T03:34:33;1.50;99.90
23207;DHT22;11773;52.570;13.052;2024-01-16T03:37:02;1.60;99.90
23207;DHT22;11773;52.570;13.052;2024-01-16T03:39:32;1.50;99.90
23207;DHT22;11773;52.570;13.052;2024-01-16T03:42:02;1.60;99.90
23207;DHT22;11773;52.570;13.052;2024-01-16T03:44:31;1.60;99.90
23207;DHT22;11773;52.570;13.052;2024-01-16T03:47:01;1.60;99.90
23207;DHT22;11773;52.570;13.052;2024-01-16T03:49:31;1.60;99.90
23207;DHT22;11773;52.570;13.052;2024-01-16T03:52:01;1.60;99.90
23207;DHT22;11773;52.570;13.052;2024-01-16T03:54:30;1.60;99.90
23207;DHT22;11773;52.570;13.052;2024-01-16T03:57:00;1.60;99.90
23207;DHT22;11773;52.570;13.052;2024-01-16T03:59:30;1.60;99.90
23207;DHT22;11773;52.570;13.052;2024-01-16T04:02:00;1.50;99.90
23207;DHT22;11773;52.570;13.052;2024-01-16T04:04:31;1.50;99.90
23207;DHT22;11773;52.570;13.052;2024-01-16T04:07:00;1.50;99.90
23207;DHT22;11773;52.570;13.052;2024-01-16T04:09:30;1.50;99.90
23207;DHT22;11773;52.570;13.052;2024-01-16T04:11:59;1.40;99.90
23207;DHT22;11773;52.570;13.052;2024-01-16T04:14:29;1.60;99.90
23207;DHT22;11773;52.570;13.052;2024-01-16T04:16:58;1.60;99.90
23207;DHT22;11773;52.570;13.052;2024-01-16T04:19:28;1.60;99.90
23207;DHT22;11773;52.570;13.052;2024-01-16T04:22:00;1.60;99.90
23207;DHT22;11773;52.570;13.052;2024-01-16T04:24:29;1.50;99.90
23207;DHT22;11773;52.570;13.052;2024-01-16T04:26:59;1.50;99.90
23207;DHT22;11773;52.570;13.052;2024-01-16T04:29:29;1.60;99.90
23207;DHT22;11773;52.570;13.052;2024-01-16T04:31:59;1.50;99.90
23207;DHT22;11773;52.570;13.052;2024-01-16T04:34:29;1.40;99.90
23207;DHT22;11773;52.570;13.052;2024-01-16T04:36:59;1.50;99.90
23207;DHT22;11773;52.570;13.052;2024-01-16T04:39:28;1.50;99.90
23207;DHT22;11773;52.570;13.052;2024-01-16T04:41:58;1.40;99.90
23207;DHT22;11773;52.570;13.052;2024-01-16T04:44:27;1.50;99.90
23207;DHT22;11773;52.570;13.052;2024-01-16T04:46:57;1.40;99.90
23207;DHT22;11773;52.570;13.052;2024-01-16T04:49:27;1.10;99.90
23207;DHT22;11773;52.570;13.052;2024-01-16T04:51:57;1.30;99.90
23207;DHT22;11773;52.570;13.052;2024-01-16T04:54:26;1.40;99.90
23207;DHT22;11773;52.570;13.052;2024-01-16T04:56:56;1.40;99.90
23207;DHT22;11773;52.570;13.052;2024-01-16T04:59:25;1.40;99.90
23207;DHT22;11773;52.570;13.052;2024-01-16T05:01:55;1.40;99.90
23207;DHT22;11773;52.570;13.052;2024-01-16T05:04:24;1.40;99.90
23207;DHT22;11773;52.570;13.052;2024-01-16T05:06:54;1.40;99.90
23207;DHT22;11773;52.570;13.052;2024-01-16T05:09:23;1.40;99.90
23207;DHT22;11773;52.570;13.052;2024-01-16T05:11:53;1.40;99.90
23207;DHT22;11773;52.570;13.052;2024-01-16T05:14:22;1.30;99.90
23207;DHT22;11773;52.570;13.052;2024-01-16T05:16:53;1.20;99.90
23207;DHT22;11773;52.570;13.052;2024-01-16T05:19:22;1.20;99.90
23207;DHT22;11773;52.570;13.052;2024-01-16T05:21:52;1.20;99.90
23207;DHT22;11773;52.570;13.052;2024-01-16T05:24:22;1.20;99.90
23207;DHT22;11773;52.570;13.052;2024-01-16T05:26:52;1.20;99.90
23207;DHT22;11773;52.570;13.052;2024-01-16T05:29:21;1.10;99.90
23207;DHT22;11773;52.570;13.052;2024-01-16T05:31:52;1.10;99.90
23207;DHT22;11773;52.570;13.052;2024-01-16T05:34:22;1.10;99.90
23207;DHT22;11773;52.570;13.052;2024-01-16T05:36:52;1.30;99.90
23207;DHT22;11773;52.570;13.052;2024-01-16T05:39:22;1.50;99.90
23207;DHT22;11773;52.570;13.052;2024-01-16T05:41:52;1.30;99.90
23207;DHT22;11773;52.570;13.052;2024-01-16T05:44:21;1.50;99.90
23207;DHT22;11773;52.570;13.052;2024-01-16T05:46:51;1.50;99.90
23207;DHT22;11773;52.570;13.052;2024-01-16T05:49:20;1.30;99.90
23207;DHT22;11773;52.570;13.052;2024-01-16T05:51:50;1.40;99.90
23207;DHT22;11773;52.570;13.052;2024-01-16T05:54:20;1.30;99.90
23207;DHT22;11773;52.570;13.052;2024-01-16T05:56:49;1.30;99.90
23207;DHT22;11773;52.570;13.052;2024-01-16T05:59:19;1.30;99.90
23207;DHT22;11773;52.570;13.052;2024-01-16T06:01:49;1.30;99.90
23207;DHT22;11773;52.570;13.052;2024-01-16T06:04:18;1.30;99.90
23207;DHT22;11773;52.570;13.052;2024-01-16T06:06:48;1.40;99.90
23207;DHT22;11773;52.570;13.052;2024-01-16T06:09:18;1.30;99.90
23207;DHT22;11773;52.570;13.052;2024-01-16T06:11:48;1.30;99.90
23207;DHT22;11773;52.570;13.052;2024-01-16T06:14:17;1.20;99.90
23207;DHT22;11773;52.570;13.052;2024-01-16T06:16:49;1.10;99.90
23207;DHT22;11773;52.570;13.052;2024-01-16T06:19:18;1.10;99.90
23207;DHT22;11773;52.570;13.052;2024-01-16T06:21:49;1.00;99.90
23207;DHT22;11773;52.570;13.052;2024-01-16T06:24:18;0.90;99.90
23207;DHT22;11773;52.570;13.052;2024-01-16T06:26:48;1.10;99.90
23207;DHT22;11773;52.570;13.052;2024-01-16T06:29:17;1.10;99.90
23207;DHT22;11773;52.570;13.052;2024-01-16T06:31:49;1.10;99.90
23207;DHT22;11773;52.570;13.052;2024-01-16T06:34:18;1.20;99.90
23207;DHT22;11773;52.570;13.052;2024-01-16T06:36:48;1.10;99.90
23207;DHT22;11773;52.570;13.052;2024-01-16T06:39:17;1.00;99.90
23207;DHT22;11773;52.570;13.052;2024-01-16T06:41:47;1.20;99.90
23207;DHT22;11773;52.570;13.052;2024-01-16T06:44:18;1.10;99.90
23207;DHT22;11773;52.570;13.052;2024-01-16T06:46:47;1.00;99.90
23207;DHT22;11773;52.570;13.052;2024-01-16T06:49:36;1.10;99.90
23207;DHT22;11773;52.570;13.052;2024-01-16T06:52:08;1.20;99.90
23207;DHT22;11773;52.570;13.052;2024-01-16T06:54:37;1.40;99.90
23207;DHT22;11773;52.570;13.052;2024-01-16T06:57:07;1.30;99.90
23207;DHT22;11773;52.570;13.052;2024-01-16T06:59:37;1.40;99.90
23207;DHT22;11773;52.570;13.052;2024-01-16T07:02:07;1.30;99.90
23207;DHT22;11773;52.570;13.052;2024-01-16T07:04:36;1.30;99.90
23207;DHT22;11773;52.570;13.052;2024-01-16T07:07:06;1.30;99.90
23207;DHT22;11773;52.570;13.052;2024-01-16T07:09:36;1.20;99.90
23207;DHT22;11773;52.570;13.052;2024-01-16T07:12:05;1.30;99.90
23207;DHT22;11773;52.570;13.052;2024-01-16T07:14:35;1.30;99.90
23207;DHT22;11773;52.570;13.052;2024-01-16T07:17:06;1.20;99.90
23207;DHT22;11773;52.570;13.052;2024-01-16T07:19:36;1.30;99.90
23207;DHT22;11773;52.570;13.052;2024-01-16T07:22:05;1.30;99.90
23207;DHT22;11773;52.570;13.052;2024-01-16T07:24:35;1.20;99.90
23207;DHT22;11773;52.570;13.052;2024-01-16T07:27:04;1.10;99.90
23207;DHT22;11773;52.570;13.052;2024-01-16T07:29:34;1.20;99.90
23207;DHT22;11773;52.570;13.052;2024-01-16T07:32:04;1.20;99.90
23207;DHT22;11773;52.570;13.052;2024-01-16T07:34:34;1.40;99.90
23207;DHT22;11773;52.570;13.052;2024-01-16T07:37:04;1.40;99.90
23207;DHT22;11773;52.570;13.052;2024-01-16T07:39:33;1.40;99.90
23207;DHT22;11773;52.570;13.052;2024-01-16T07:42:03;1.40;99.90
23207;DHT22;11773;52.570;13.052;2024-01-16T07:44:33;1.50;99.90
23207;DHT22;11773;52.570;13.052;2024-01-16T07:47:02;1.50;99.90
23207;DHT22;11773;52.570;13.052;2024-01-16T07:49:32;1.50;99.90
23207;DHT22;11773;52.570;13.052;2024-01-16T07:52:02;1.60;99.90
23207;DHT22;11773;52.570;13.052;2024-01-16T07:54:31;1.50;99.90
23207;DHT22;11773;52.570;13.052;2024-01-16T07:57:01;1.50;99.90
23207;DHT22;11773;52.570;13.052;2024-01-16T07:59:30;1.60;99.90
23207;DHT22;11773;52.570;13.052;2024-01-16T08:02:00;1.60;99.90
23207;DHT22;11773;52.570;13.052;2024-01-16T08:04:30;1.70;99.90
23207;DHT22;11773;52.570;13.052;2024-01-16T08:07:00;1.80;99.90
23207;DHT22;11773;52.570;13.052;2024-01-16T08:09:29;1.80;99.90
23207;DHT22;11773;52.570;13.052;2024-01-16T08:11:59;1.80;99.90
23207;DHT22;11773;52.570;13.052;2024-01-16T08:14:30;1.90;99.90
23207;DHT22;11773;52.570;13.052;2024-01-16T08:17:00;1.90;99.90
23207;DHT22;11773;52.570;13.052;2024-01-16T08:19:29;2.00;99.90
23207;DHT22;11773;52.570;13.052;2024-01-16T08:22:00;2.00;99.90
23207;DHT22;11773;52.570;13.052;2024-01-16T08:24:32;2.10;99.90
23207;DHT22;11773;52.570;13.052;2024-01-16T08:27:02;2.10;99.90
23207;DHT22;11773;52.570;13.052;2024-01-16T08:29:31;2.00;99.90
23207;DHT22;11773;52.570;13.052;2024-01-16T08:32:01;1.90;99.90
23207;DHT22;11773;52.570;13.052;2024-01-16T08:34:31;2.10;99.90
23207;DHT22;11773;52.570;13.052;2024-01-16T08:37:01;2.00;99.90
23207;DHT22;11773;52.570;13.052;2024-01-16T08:39:32;2.00;99.90
23207;DHT22;11773;52.570;13.052;2024-01-16T08:42:02;2.00;99.90
23207;DHT22;11773;52.570;13.052;2024-01-16T08:44:31;2.00;99.90
23207;DHT22;11773;52.570;13.052;2024-01-16T08:47:01;2.00;99.90
23207;DHT22;11773;52.570;13.052;2024-01-16T08:49:32;2.00;99.90
23207;DHT22;11773;52.570;13.052;2024-01-16T08:52:03;2.10;99.90
23207;DHT22;11773;52.570;13.052;2024-01-16T08:54:33;2.20;99.90
23207;DHT22;11773;52.570;13.052;2024-01-16T08:57:03;2.40;99.90
23207;DHT22;11773;52.570;13.052;2024-01-16T08:59:33;2.30;99.90
23207;DHT22;11773;52.570;13.052;2024-01-16T09:02:02;2.40;99.90
23207;DHT22;11773;52.570;13.052;2024-01-16T09:04:32;2.50;99.90
23207;DHT22;11773;52.570;13.052;2024-01-16T09:07:02;2.50;99.90
23207;DHT22;11773;52.570;13.052;2024-01-16T09:09:32;2.40;99.90
23207;DHT22;11773;52.570;13.052;2024-01-16T09:12:02;2.40;99.90
23207;DHT22;11773;52.570;13.052;2024-01-16T09:14:32;2.50;99.90
23207;DHT22;11773;52.570;13.052;2024-01-16T09:17:02;2.60;99.90
23207;DHT22;11773;52.570;13.052;2024-01-16T09:19:32;2.60;99.90
23207;DHT22;11773;52.570;13.052;2024-01-16T09:22:01;2.60;99.90
23207;DHT22;11773;52.570;13.052;2024-01-16T09:24:31;2.70;99.90
23207;DHT22;11773;52.570;13.052;2024-01-16T09:27:01;2.60;99.90
23207;DHT22;11773;52.570;13.052;2024-01-16T09:29:32;2.60;99.90
23207;DHT22;11773;52.570;13.052;2024-01-16T09:32:03;2.70;99.90
23207;DHT22;11773;52.570;13.052;2024-01-16T09:34:33;2.70;99.90
23207;DHT22;11773;52.570;13.052;2024-01-16T09:37:02;2.80;99.90
23207;DHT22;11773;52.570;13.052;2024-01-16T09:39:32;2.70;99.90
23207;DHT22;11773;52.570;13.052;2024-01-16T09:42:02;3.00;99.90
23207;DHT22;11773;52.570;13.052;2024-01-16T09:44:32;3.00;99.90
23207;DHT22;11773;52.570;13.052;2024-01-16T09:47:02;3.10;99.90
23207;DHT22;11773;52.570;13.052;2024-01-16T09:49:35;3.10;99.90
23207;DHT22;11773;52.570;13.052;2024-01-16T09:52:07;3.20;99.90
23207;DHT22;11773;52.570;13.052;2024-01-16T09:54:36;3.20;99.90
23207;DHT22;11773;52.570;13.052;2024-01-16T09:57:07;3.20;99.90
23207;DHT22;11773;52.570;13.052;2024-01-16T09:59:40;3.30;99.90
23207;DHT22;11773;52.570;13.052;2024-01-16T10:02:11;3.40;99.90
23207;DHT22;11773;52.570;13.052;2024-01-16T10:04:42;3.40;99.90
23207;DHT22;11773;52.570;13.052;2024-01-16T10:07:13;3.60;99.90
23207;DHT22;11773;52.570;13.052;2024-01-16T10:09:44;3.50;99.90
23207;DHT22;11773;52.570;13.052;2024-01-16T10:12:14;3.50;99.90
23207;DHT22;11773;52.570;13.052;2024-01-16T10:14:46;3.50;99.90
23207;DHT22;11773;52.570;13.052;2024-01-16T10:17:18;3.60;99.90
23207;DHT22;11773;52.570;13.052;2024-01-16T10:19:52;3.60;99.90
23207;DHT22;11773;52.570;13.052;2024-01-16T10:22:24;3.60;99.90
23207;DHT22;11773;52.570;13.052;2024-01-16T10:27:39;3.70;99.90
23207;DHT22;11773;52.570;13.052;2024-01-16T10:30:09;3.60;99.90
23207;DHT22;11773;52.570;13.052;2024-01-16T10:32:41;3.60;99.90
23207;DHT22;11773;52.570;13.052;2024-01-16T10:35:13;3.40;99.90
23207;DHT22;11773;52.570;13.052;2024-01-16T10:37:48;3.60;99.90
23207;DHT22;11773;52.570;13.052;2024-01-16T10:40:21;3.50;99.90
23207;DHT22;11773;52.570;13.052;2024-01-16T10:43:01;3.50;99.90
23207;DHT22;11773;52.570;13.052;2024-01-16T10:45:33;3.50;99.90
23207;DHT22;11773;52.570;13.052;2024-01-16T10:48:07;3.50;99.90
23207;DHT22;11773;52.570;13.052;2024-01-16T10:50:38;3.50;99.90
23207;DHT22;11773;52.570;13.052;2024-01-16T10:53:08;3.50;99.90
23207;DHT22;11773;52.570;13.052;2024-01-16T10:55:49;3.60;99.90
23207;DHT22;11773;52.570;13.052;2024-01-16T10:58:17;3.40;99.90
23207;DHT22;11773;52.570;13.052;2024-01-16T11:00:54;3.50;99.90
23207;DHT22;11773;52.570;13.052;2024-01-16T11:03:49;3.50;99.90
23207;DHT22;11773;52.570;13.052;2024-01-16T11:06:21;3.40;99.90
23207;DHT22;11773;52.570;13.052;2024-01-16T11:08:51;3.60;99.90
23207;DHT22;11773;52.570;13.052;2024-01-16T11:11:22;3.50;99.90
23207;DHT22;11773;52.570;13.052;2024-01-16T11:13:54;3.50;99.90
23207;DHT22;11773;52.570;13.052;2024-01-16T11:16:25;3.30;99.90
23207;DHT22;11773;52.570;13.052;2024-01-16T11:18:55;3.50;99.90
23207;DHT22;11773;52.570;13.052;2024-01-16T11:21:27;3.20;99.90
23207;DHT22;11773;52.570;13.052;2024-01-16T11:23:57;3.30;99.90
23207;DHT22;11773;52.570;13.052;2024-01-16T11:26:34;3.10;99.90
23207;DHT22;11773;52.570;13.052;2024-01-16T11:32:01;3.40;99.90
23207;DHT22;11773;52.570;13.052;2024-01-16T11:37:26;3.40;99.90
23207;DHT22;11773;52.570;13.052;2024-01-16T11:42:51;3.20;99.90
23207;DHT22;11773;52.570;13.052;2024-01-16T11:48:12;3.20;99.90
23207;DHT22;11773;52.570;13.052;2024-01-16T11:50:44;3.20;99.90
23207;DHT22;11773;52.570;13.052;2024-01-16T11:53:36;3.30;99.90
23207;DHT22;11773;52.570;13.052;2024-01-16T11:59:18;3.30;99.90
23207;DHT22;11773;52.570;13.052;2024-01-16T12:02:09;3.30;99.90
23207;DHT22;11773;52.570;13.052;2024-01-16T12:04:38;3.40;99.90
23207;DHT22;11773;52.570;13.052;2024-01-16T12:07:08;3.40;99.90
23207;DHT22;11773;52.570;13.052;2024-01-16T12:09:38;3.50;99.90
23207;DHT22;11773;52.570;13.052;2024-01-16T12:12:08;3.50;99.90
23207;DHT22;11773;52.570;13.052;2024-01-16T12:14:38;3.40;99.90
23207;DHT22;11773;52.570;13.052;2024-01-16T12:17:12;3.40;99.90
23207;DHT22;11773;52.570;13.052;2024-01-16T12:19:43;3.50;99.90
23207;DHT22;11773;52.570;13.052;2024-01-16T12:22:15;3.50;99.90
23207;DHT22;11773;52.570;13.052;2024-01-16T12:24:46;3.30;99.90
23207;DHT22;11773;52.570;13.052;2024-01-16T12:27:16;3.40;99.90
23207;DHT22;11773;52.570;13.052;2024-01-16T12:29:45;3.40;99.90
23207;DHT22;11773;52.570;13.052;2024-01-16T12:32:15;3.30;99.90
23207;DHT22;11773;52.570;13.052;2024-01-16T12:34:47;3.30;99.90
23207;DHT22;11773;52.570;13.052;2024-01-16T12:37:17;3.30;99.90
23207;DHT22;11773;52.570;13.052;2024-01-16T12:39:47;3.40;99.90
23207;DHT22;11773;52.570;13.052;2024-01-16T12:42:19;3.40;99.90
23207;DHT22;11773;52.570;13.052;2024-01-16T12:44:50;3.30;99.90
23207;DHT22;11773;52.570;13.052;2024-01-16T12:47:20;3.40;99.90
23207;DHT22;11773;52.570;13.052;2024-01-16T12:49:50;3.30;99.90
23207;DHT22;11773;52.570;13.052;2024-01-16T12:52:21;3.50;99.90
23207;DHT22;11773;52.570;13.052;2024-01-16T12:55:02;3.40;99.90
23207;DHT22;11773;52.570;13.052;2024-01-16T12:57:33;3.40;99.90
23207;DHT22;11773;52.570;13.052;2024-01-16T13:00:28;3.40;99.90
23207;DHT22;11773;52.570;13.052;2024-01-16T13:02:54;3.30;99.90
23207;DHT22;11773;52.570;13.052;2024-01-16T13:05:25;3.20;99.90
23207;DHT22;11773;52.570;13.052;2024-01-16T13:08:02;3.50;99.90
23207;DHT22;11773;52.570;13.052;2024-01-16T13:10:32;3.50;99.90
23207;DHT22;11773;52.570;13.052;2024-01-16T13:13:18;3.50;99.90
23207;DHT22;11773;52.570;13.052;2024-01-16T13:15:47;3.40;99.90
23207;DHT22;11773;52.570;13.052;2024-01-16T13:18:22;3.50;99.90
23207;DHT22;11773;52.570;13.052;2024-01-16T13:20:54;3.50;99.90
23207;DHT22;11773;52.570;13.052;2024-01-16T13:23:26;3.50;99.90
23207;DHT22;11773;52.570;13.052;2024-01-16T13:25:56;3.70;99.90
23207;DHT22;11773;52.570;13.052;2024-01-16T13:28:28;3.70;99.90
23207;DHT22;11773;52.570;13.052;2024-01-16T13:30:58;3.60;99.90
23207;DHT22;11773;52.570;13.052;2024-01-16T13:33:28;3.70;99.90
23207;DHT22;11773;52.570;13.052;2024-01-16T13:35:58;3.60;99.90
23207;DHT22;11773;52.570;13.052;2024-01-16T13:38:28;3.60;99.90
23207;DHT22;11773;52.570;13.052;2024-01-16T13:40:57;3.60;99.90
23207;DHT22;11773;52.570;13.052;2024-01-16T13:43:27;3.70;99.90
23207;DHT22;11773;52.570;13.052;2024-01-16T13:45:56;3.70;99.90
23207;DHT22;11773;52.570;13.052;2024-01-16T13:48:26;3.70;99.90
23207;DHT22;11773;52.570;13.052;2024-01-16T13:50:56;3.60;99.90
23207;DHT22;11773;52.570;13.052;2024-01-16T13:53:25;3.60;99.90
23207;DHT22;11773;52.570;13.052;2024-01-16T13:55:55;3.70;99.90
23207;DHT22;11773;52.570;13.052;2024-01-16T13:58:26;3.70;99.90
23207;DHT22;11773;52.570;13.052;2024-01-16T14:00:55;3.70;99.90
23207;DHT22;11773;52.570;13.052;2024-01-16T14:03:25;3.60;99.90
23207;DHT22;11773;52.570;13.052;2024-01-16T14:05:55;3.40;99.90
23207;DHT22;11773;52.570;13.052;2024-01-16T14:08:25;3.50;99.90
23207;DHT22;11773;52.570;13.052;2024-01-16T14:10:54;3.60;99.90
23207;DHT22;11773;52.570;13.052;2024-01-16T14:13:24;3.60;99.90
23207;DHT22;11773;52.570;13.052;2024-01-16T14:15:54;3.60;99.90
23207;DHT22;11773;52.570;13.052;2024-01-16T14:18:25;3.50;99.90
23207;DHT22;11773;52.570;13.052;2024-01-16T14:20:54;3.50;99.90
23207;DHT22;11773;52.570;13.052;2024-01-16T14:23:24;3.50;99.90
23207;DHT22;11773;52.570;13.052;2024-01-16T14:25:53;3.50;99.90
23207;DHT22;11773;52.570;13.052;2024-01-16T14:28:24;3.60;99.90
23207;DHT22;11773;52.570;13.052;2024-01-16T14:30:56;3.70;99.90
23207;DHT22;11773;52.570;13.052;2024-01-16T14:33:26;3.60;99.90
23207;DHT22;11773;52.570;13.052;2024-01-16T14:35:56;3.60;99.90
23207;DHT22;11773;52.570;13.052;2024-01-16T14:38:28;3.60;99.90
23207;DHT22;11773;52.570;13.052;2024-01-16T14:40:58;3.50;99.90
23207;DHT22;11773;52.570;13.052;2024-01-16T14:43:27;3.40;99.90
23207;DHT22;11773;52.570;13.052;2024-01-16T14:45:57;3.40;99.90
23207;DHT22;11773;52.570;13.052;2024-01-16T14:48:27;3.20;99.90
23207;DHT22;11773;52.570;13.052;2024-01-16T14:50:56;3.10;99.90
23207;DHT22;11773;52.570;13.052;2024-01-16T14:53:26;3.10;99.90
23207;DHT22;11773;52.570;13.052;2024-01-16T14:55:56;3.10;99.90
23207;DHT22;11773;52.570;13.052;2024-01-16T14:58:25;3.10;99.90
23207;DHT22;11773;52.570;13.052;2024-01-16T15:00:55;3.10;99.90
23207;DHT22;11773;52.570;13.052;2024-01-16T15:03:26;3.10;99.90
23207;DHT22;11773;52.570;13.052;2024-01-16T15:05:56;3.10;99.90
23207;DHT22;11773;52.570;13.052;2024-01-16T15:08:25;3.10;99.90
23207;DHT22;11773;52.570;13.052;2024-01-16T15:10:56;3.10;99.90
23207;DHT22;11773;52.570;13.052;2024-01-16T15:13:27;3.10;99.90
23207;DHT22;11773;52.570;13.052;2024-01-16T15:15:57;3.20;99.90
23207;DHT22;11773;52.570;13.052;2024-01-16T15:18:27;3.20;99.90
23207;DHT22;11773;52.570;13.052;2024-01-16T15:20:57;3.20;99.90
23207;DHT22;11773;52.570;13.052;2024-01-16T15:23:26;3.20;99.90
23207;DHT22;11773;52.570;13.052;2024-01-16T15:25:57;3.30;99.90
23207;DHT22;11773;52.570;13.052;2024-01-16T15:28:29;3.20;99.90
23207;DHT22;11773;52.570;13.052;2024-01-16T15:31:00;3.30;99.90
23207;DHT22;11773;52.570;13.052;2024-01-16T15:33:32;3.30;99.90
23207;DHT22;11773;52.570;13.052;2024-01-16T15:36:04;3.10;99.90
23207;DHT22;11773;52.570;13.052;2024-01-16T15:38:33;3.20;99.90
23207;DHT22;11773;52.570;13.052;2024-01-16T15:41:03;3.20;99.90
23207;DHT22;11773;52.570;13.052;2024-01-16T15:43:33;3.10;99.90
23207;DHT22;11773;52.570;13.052;2024-01-16T15:46:03;3.00;99.90
23207;DHT22;11773;52.570;13.052;2024-01-16T15:48:33;3.00;99.90
23207;DHT22;11773;52.570;13.052;2024-01-16T15:51:04;2.90;99.90
23207;DHT22;11773;52.570;13.052;2024-01-16T15:53:36;3.00;99.90
23207;DHT22;11773;52.570;13.052;2024-01-16T15:56:05;2.80;99.90
23207;DHT22;11773;52.570;13.052;2024-01-16T15:58:35;2.80;99.90
23207;DHT22;11773;52.570;13.052;2024-01-16T16:01:05;2.80;99.90
23207;DHT22;11773;52.570;13.052;2024-01-16T16:03:34;2.80;99.90
23207;DHT22;11773;52.570;13.052;2024-01-16T16:06:04;2.90;99.90
23207;DHT22;11773;52.570;13.052;2024-01-16T16:08:36;3.00;99.90